createdAt,value
2023-02-08T00:00:59.494Z,99786.23
2023-02-08T00:03:29.484Z,99789.14
2023-02-08T00:05:59.656Z,99797.93
2023-02-08T00:08:33.365Z,99796.20
2023-02-08T00:11:03.008Z,99794.23
2023-02-08T00:13:33.758Z,99797.48
2023-02-08T00:16:04.435Z,99797.66
2023-02-08T00:18:34.452Z,99802.66
2023-02-08T00:21:12.031Z,99808.17
2023-02-08T00:23:42.886Z,99814.52
2023-02-08T00:26:16.217Z,99812.97
2023-02-08T00:28:46.538Z,99819.15
2023-02-08T00:31:16.045Z,99815.98
2023-02-08T00:33:46.011Z,99813.51
2023-02-08T00:36:16.422Z,99812.77
2023-02-08T00:38:46.122Z,99811.96
2023-02-08T00:41:16.551Z,99819.64
2023-02-08T00:43:46.913Z,99822.10
2023-02-08T00:46:19.039Z,99826.55
2023-02-08T00:48:48.662Z,99834.34
2023-02-08T00:51:18.692Z,99838.99
2023-02-08T00:53:48.152Z,99843.47
2023-02-08T00:56:18.192Z,99840.77
2023-02-08T00:58:48.989Z,99839.24
2023-02-08T01:01:20.474Z,99843.88
2023-02-08T01:03:53.441Z,99844.10
2023-02-08T01:06:24.003Z,99849.07
2023-02-08T01:08:54.609Z,99847.66
2023-02-08T01:11:27.256Z,99846.80
2023-02-08T01:13:58.149Z,99850.59
2023-02-08T01:16:30.779Z,99857.96
2023-02-08T01:19:07.731Z,99862.38
2023-02-08T01:21:43.163Z,99870.70
2023-02-08T01:24:13.146Z,99870.67
2023-02-08T01:26:45.010Z,99875.64
2023-02-08T01:29:17.262Z,99876.04
2023-02-08T01:31:47.270Z,99879.11
2023-02-08T01:34:17.275Z,99880.30
2023-02-08T01:36:47.090Z,99876.59
2023-02-08T01:39:17.259Z,99878.41
2023-02-08T01:41:47.466Z,99875.92
2023-02-08T01:44:20.444Z,99884.99
2023-02-08T01:46:51.788Z,99884.16
2023-02-08T01:49:34.092Z,99883.90
2023-02-08T01:52:15.951Z,99893.08
2023-02-08T01:55:11.948Z,99894.61
2023-02-08T01:57:43.797Z,99895.08
2023-02-08T02:00:23.842Z,99899.10
2023-02-08T02:02:59.312Z,99904.13
2023-02-08T02:05:42.031Z,99909.56
2023-02-08T02:08:13.288Z,99910.54
2023-02-08T02:10:45.008Z,99911.95
2023-02-08T02:13:24.770Z,99911.80
2023-02-08T02:15:56.532Z,99915.70
2023-02-08T02:18:30.220Z,99918.06
2023-02-08T02:21:20.219Z,99922.99
2023-02-08T02:23:56.018Z,99924.20
2023-02-08T02:26:55.189Z,99923.33
2023-02-08T02:29:58.940Z,99922.40
2023-02-08T02:32:30.949Z,99928.35
2023-02-08T02:35:46.665Z,99930.19
2023-02-08T02:38:49.271Z,99931.98
2023-02-08T02:42:03.552Z,99933.15
2023-02-08T02:45:12.023Z,99941.32
2023-02-08T02:48:12.018Z,99946.58
2023-02-08T02:51:04.502Z,99954.84
2023-02-08T02:53:49.485Z,99952.30
2023-02-08T02:56:24.570Z,99960.33
2023-02-08T02:58:59.445Z,99964.92
2023-02-08T03:01:31.785Z,99969.30
2023-02-08T03:04:16.813Z,99973.41
2023-02-08T03:06:56.265Z,99974.31
2023-02-08T03:09:37.607Z,99976.92
2023-02-08T03:12:19.398Z,99978.16
2023-02-08T03:14:59.668Z,99973.30
2023-02-08T03:17:57.828Z,99976.83
2023-02-08T03:20:42.161Z,99983.59
2023-02-08T03:23:29.667Z,99986.80
2023-02-08T03:26:27.933Z,99990.04
2023-02-08T03:29:13.903Z,99994.90
2023-02-08T03:31:56.740Z,99994.06
2023-02-08T03:34:51.392Z,99999.80
2023-02-08T03:37:38.331Z,100000.80
2023-02-08T03:40:37.362Z,100002.56
2023-02-08T03:43:17.817Z,100005.54
2023-02-08T03:45:59.600Z,100007.83
2023-02-08T03:48:32.361Z,100013.65
2023-02-08T03:51:05.400Z,100020.08
2023-02-08T03:53:38.877Z,100023.39
2023-02-08T03:56:25.906Z,100022.81
2023-02-08T03:59:00.685Z,100024.09
2023-02-08T04:01:37.329Z,100025.17
2023-02-08T04:04:07.284Z,100033.13
2023-02-08T04:06:36.625Z,100038.23
2023-02-08T04:09:06.944Z,100044.45
2023-02-08T04:11:37.577Z,100047.16
2023-02-08T04:14:08.164Z,100047.61
2023-02-08T04:16:37.686Z,100049.27
2023-02-08T04:19:10.704Z,100049.61
2023-02-08T04:21:45.125Z,100056.27
2023-02-08T04:24:17.862Z,100055.43
2023-02-08T04:26:51.354Z,100060.08
2023-02-08T04:29:20.547Z,100060.81
2023-02-08T04:34:34.600Z,100065.63
2023-02-08T04:37:06.152Z,100071.92
2023-02-08T04:39:38.984Z,100071.81
2023-02-08T04:42:09.609Z,100077.86
2023-02-08T04:44:41.821Z,100080.55
2023-02-08T04:47:11.182Z,100077.59
2023-02-08T04:49:41.768Z,100081.02
2023-02-08T04:52:14.359Z,100086.05
2023-02-08T04:54:43.809Z,100092.45
2023-02-08T04:57:15.619Z,100092.43
2023-02-08T04:59:44.843Z,100100.46
2023-02-08T05:02:19.470Z,100105.77
2023-02-08T05:04:49.474Z,100112.17
2023-02-08T05:07:19.850Z,100112.91
2023-02-08T05:09:49.769Z,100112.27
2023-02-08T05:12:24.172Z,100123.63
2023-02-08T05:14:54.746Z,100124.16
2023-02-08T05:17:27.238Z,100129.88
2023-02-08T05:19:59.252Z,100133.73
2023-02-08T05:22:29.431Z,100140.00
2023-02-08T05:25:07.297Z,100148.55
2023-02-08T05:27:37.927Z,100151.69
2023-02-08T05:30:08.906Z,100158.34
2023-02-08T05:32:39.103Z,100158.09
2023-02-08T05:35:29.355Z,100165.20
2023-02-08T05:37:59.035Z,100163.73
2023-02-08T05:40:29.140Z,100166.23
2023-02-08T05:43:05.482Z,100173.92
2023-02-08T05:45:34.782Z,100178.56
2023-02-08T05:48:05.188Z,100178.77
2023-02-08T05:50:35.543Z,100183.09
2023-02-08T05:53:05.337Z,100188.64
2023-02-08T05:55:36.139Z,100189.68
2023-02-08T05:58:06.739Z,100191.09
2023-02-08T06:00:36.469Z,100192.23
2023-02-08T06:03:10.336Z,100198.15
2023-02-08T06:05:41.568Z,100203.07
2023-02-08T06:08:16.487Z,100200.80
2023-02-08T06:10:51.720Z,100204.82
2023-02-08T06:13:39.647Z,100205.48
2023-02-08T06:16:09.789Z,100213.95
2023-02-08T06:18:39.268Z,100218.14
2023-02-08T06:21:08.726Z,100223.70
2023-02-08T06:23:39.352Z,100226.09
2023-02-08T06:26:09.483Z,100231.89
2023-02-08T06:28:41.856Z,100232.04
2023-02-08T06:31:11.920Z,100237.52
2023-02-08T06:33:41.678Z,100233.60
2023-02-08T06:36:10.983Z,100230.52
2023-02-08T06:38:43.348Z,100233.72
2023-02-08T06:41:19.894Z,100233.67
2023-02-08T06:43:49.162Z,100231.78
2023-02-08T06:46:21.096Z,100233.80
2023-02-08T06:48:52.062Z,100239.45
2023-02-08T06:51:21.900Z,100239.19
2023-02-08T06:53:51.382Z,100246.36
2023-02-08T06:56:40.739Z,100245.55
2023-02-08T06:59:10.759Z,100248.78
2023-02-08T07:01:39.880Z,100255.52
2023-02-08T07:04:12.930Z,100261.06
2023-02-08T07:06:42.920Z,100263.26
2023-02-08T07:09:22.329Z,100267.94
2023-02-08T07:11:52.623Z,100266.96
2023-02-08T07:14:23.789Z,100275.33
2023-02-08T07:16:56.265Z,100276.98
2023-02-08T07:19:27.090Z,100276.28
2023-02-08T07:21:59.972Z,100278.69
2023-02-08T07:24:29.865Z,100278.52
2023-02-08T07:27:00.056Z,100275.02
2023-02-08T07:29:31.466Z,100280.66
2023-02-08T07:32:04.871Z,100285.98
2023-02-08T07:34:38.893Z,100284.88
2023-02-08T07:37:15.991Z,100283.39
2023-02-08T07:39:45.866Z,100293.59
2023-02-08T07:42:15.505Z,100292.83
2023-02-08T07:44:55.196Z,100295.38
2023-02-08T07:47:25.145Z,100302.72
2023-02-08T07:49:54.641Z,100301.14
2023-02-08T07:52:25.233Z,100302.52
2023-02-08T07:54:55.878Z,100305.23
2023-02-08T07:57:25.837Z,100308.71
2023-02-08T07:59:56.605Z,100309.66
2023-02-08T08:02:25.780Z,100308.84
2023-02-08T08:04:55.334Z,100307.03
2023-02-08T08:07:24.815Z,100310.34
2023-02-08T08:09:59.164Z,100317.42
2023-02-08T08:12:28.919Z,100317.77
2023-02-08T08:14:59.438Z,100318.13
2023-02-08T08:17:32.451Z,100321.63
2023-02-08T08:20:03.449Z,100323.67
2023-02-08T08:22:39.407Z,100324.33
2023-02-08T08:25:15.137Z,100331.11
2023-02-08T08:27:55.701Z,100336.50
2023-02-08T08:30:25.571Z,100340.64
2023-02-08T08:32:55.555Z,100339.11
2023-02-08T08:35:25.716Z,100343.55
2023-02-08T08:37:56.040Z,100347.73
2023-02-08T08:40:27.285Z,100352.13
2023-02-08T08:42:59.733Z,100353.27
2023-02-08T08:45:31.744Z,100353.05
2023-02-08T08:48:06.426Z,100354.08
2023-02-08T08:50:39.199Z,100356.93
2023-02-08T08:53:10.148Z,100360.10
2023-02-08T08:55:45.737Z,100361.83
2023-02-08T08:58:19.078Z,100356.61
2023-02-08T09:00:50.224Z,100363.55
2023-02-08T09:03:20.052Z,100360.80
2023-02-08T09:05:50.318Z,100359.41
2023-02-08T09:08:23.253Z,100362.02
2023-02-08T09:11:08.303Z,100364.77
2023-02-08T09:13:38.422Z,100367.63
2023-02-08T09:16:24.880Z,100366.85
2023-02-08T09:18:57.512Z,100369.59
2023-02-08T09:21:28.324Z,100371.79
2023-02-08T09:23:59.617Z,100371.67
2023-02-08T09:26:32.674Z,100371.08
2023-02-08T09:29:08.798Z,100371.48
2023-02-08T09:31:40.001Z,100370.17
2023-02-08T09:34:10.922Z,100368.04
2023-02-08T09:36:44.602Z,100367.83
2023-02-08T09:39:25.989Z,100372.94
2023-02-08T09:42:14.905Z,100374.14
2023-02-08T09:45:15.234Z,100376.60
2023-02-08T09:47:59.426Z,100375.70
2023-02-08T09:50:45.393Z,100373.33
2023-02-08T09:53:38.135Z,100373.02
2023-02-08T09:56:16.560Z,100370.38
2023-02-08T09:58:51.428Z,100370.04
2023-02-08T10:01:31.155Z,100376.11
2023-02-08T10:04:18.281Z,100369.73
2023-02-08T10:06:50.053Z,100362.78
2023-02-08T10:09:26.496Z,100359.31
2023-02-08T10:11:58.396Z,100352.67
2023-02-08T10:14:45.549Z,100349.06
2023-02-08T10:17:43.554Z,100340.33
2023-02-08T10:20:43.084Z,100338.14
2023-02-08T10:23:31.664Z,100332.83
2023-02-08T10:26:32.134Z,100338.95
2023-02-08T10:29:37.882Z,100335.80
2023-02-08T10:32:28.476Z,100336.59
2023-02-08T10:35:04.727Z,100338.04
2023-02-08T10:37:53.854Z,100336.27
2023-02-08T10:40:41.766Z,100332.59
2023-02-08T10:43:47.435Z,100330.04
2023-02-08T10:47:08.788Z,100330.27
2023-02-08T10:50:09.604Z,100329.66
2023-02-08T10:52:49.702Z,100330.33
2023-02-08T10:55:40.502Z,100324.64
2023-02-08T10:58:27.641Z,100324.60
2023-02-08T11:01:34.425Z,100318.92
2023-02-08T11:04:23.027Z,100322.45
2023-02-08T11:07:16.991Z,100324.45
2023-02-08T11:09:53.000Z,100320.98
2023-02-08T11:12:24.030Z,100329.15
2023-02-08T11:14:54.525Z,100331.71
2023-02-08T11:17:34.499Z,100332.71
2023-02-08T11:20:06.421Z,100332.08
2023-02-08T11:22:37.692Z,100334.14
2023-02-08T11:25:08.503Z,100335.73
2023-02-08T11:27:45.483Z,100330.70
2023-02-08T11:30:21.464Z,100324.63
2023-02-08T11:33:14.866Z,100327.83
2023-02-08T11:35:57.835Z,100322.29
2023-02-08T11:38:28.904Z,100319.98
2023-02-08T11:41:07.175Z,100323.31
2023-02-08T11:43:36.952Z,100321.42
2023-02-08T11:46:07.333Z,100318.14
2023-02-08T11:48:50.327Z,100319.48
2023-02-08T11:51:36.435Z,100323.34
2023-02-08T11:54:09.642Z,100322.00
2023-02-08T11:56:39.296Z,100322.13
2023-02-08T11:59:25.166Z,100316.67
2023-02-08T12:01:55.844Z,100317.33
2023-02-08T12:04:26.350Z,100314.27
2023-02-08T12:07:20.307Z,100313.30
2023-02-08T12:10:29.735Z,100310.63
2023-02-08T12:13:27.730Z,100306.07
2023-02-08T12:16:52.335Z,100305.16
2023-02-08T12:19:37.325Z,100305.20
2023-02-08T12:22:18.441Z,100300.69
2023-02-08T12:25:34.725Z,100304.98
2023-02-08T12:28:23.876Z,100306.64
2023-02-08T12:31:33.145Z,100308.02
2023-02-08T12:34:15.532Z,100306.77
2023-02-08T12:37:40.487Z,100307.89
2023-02-08T12:40:45.803Z,100307.29
2023-02-08T12:43:53.170Z,100307.55
2023-02-08T12:46:58.957Z,100304.77
2023-02-08T12:49:49.472Z,100302.79
2023-02-08T12:52:58.227Z,100298.81
2023-02-08T12:55:41.854Z,100301.08
2023-02-08T12:58:35.819Z,100300.41
2023-02-08T13:01:20.819Z,100301.86
2023-02-08T13:04:15.351Z,100304.09
2023-02-08T13:07:03.312Z,100305.20
2023-02-08T13:09:42.513Z,100303.10
2023-02-08T13:12:20.810Z,100304.39
2023-02-08T13:15:02.959Z,100306.85
2023-02-08T13:17:58.478Z,100312.43
2023-02-08T13:20:43.989Z,100311.61
2023-02-08T13:23:51.578Z,100307.63
2023-02-08T13:26:34.899Z,100309.41
2023-02-08T13:29:05.503Z,100303.79
2023-02-08T13:31:45.876Z,100306.52
2023-02-08T13:34:25.681Z,100309.08
2023-02-08T13:37:01.131Z,100309.65
2023-02-08T13:39:47.025Z,100308.59
2023-02-08T13:42:32.049Z,100305.78
2023-02-08T13:45:05.779Z,100304.25
2023-02-08T13:48:10.007Z,100308.30
2023-02-08T13:50:59.175Z,100309.64
2023-02-08T13:53:40.164Z,100308.96
2023-02-08T13:56:13.694Z,100312.41
2023-02-08T13:58:52.299Z,100310.52
2023-02-08T14:01:28.972Z,100303.91
2023-02-08T14:04:13.293Z,100300.32
2023-02-08T14:06:58.281Z,100298.96
2023-02-08T14:09:48.678Z,100300.45
2023-02-08T14:13:09.563Z,100297.05
2023-02-08T14:15:41.159Z,100301.64
2023-02-08T14:18:27.397Z,100303.08
2023-02-08T14:21:05.024Z,100299.61
2023-02-08T14:23:40.583Z,100297.46
2023-02-08T14:26:24.712Z,100297.76
2023-02-08T14:29:07.447Z,100297.73
2023-02-08T14:31:59.477Z,100296.80
2023-02-08T14:34:38.934Z,100291.10
2023-02-08T14:37:22.144Z,100297.94
2023-02-08T14:40:24.420Z,100298.42
2023-02-08T14:43:28.675Z,100293.84
2023-02-08T14:46:39.614Z,100297.09
2023-02-08T14:49:34.717Z,100296.02
2023-02-08T14:52:25.322Z,100299.38
2023-02-08T14:55:09.700Z,100302.67
2023-02-08T14:58:08.772Z,100291.98
2023-02-08T15:00:56.042Z,100296.08
2023-02-08T15:03:35.702Z,100292.45
2023-02-08T15:06:49.865Z,100293.16
2023-02-08T15:09:25.925Z,100292.84
2023-02-08T15:12:03.048Z,100293.05
2023-02-08T15:14:36.703Z,100296.77
2023-02-08T15:17:18.880Z,100294.34
2023-02-08T15:19:51.574Z,100290.58
2023-02-08T15:22:29.433Z,100291.25
2023-02-08T15:25:20.475Z,100296.15
2023-02-08T15:27:56.398Z,100302.36
2023-02-08T15:30:32.756Z,100300.35
2023-02-08T15:33:11.022Z,100301.45
2023-02-08T15:35:43.484Z,100306.31
2023-02-08T15:38:23.791Z,100311.95
2023-02-08T15:41:14.424Z,100314.77
2023-02-08T15:43:46.672Z,100315.79
2023-02-08T15:46:24.758Z,100319.03
2023-02-08T15:49:01.447Z,100319.16
2023-02-08T15:51:30.990Z,100320.89
2023-02-08T15:54:01.470Z,100326.06
2023-02-08T15:56:39.486Z,100326.71
2023-02-08T15:59:24.184Z,100326.59
2023-02-08T16:01:58.662Z,100329.55
2023-02-08T16:04:28.400Z,100334.48
2023-02-08T16:07:00.125Z,100335.60
2023-02-08T16:09:31.931Z,100343.56
2023-02-08T16:12:01.939Z,100347.96
2023-02-08T16:14:47.393Z,100344.20
2023-02-08T16:17:49.292Z,100346.70
2023-02-08T16:20:23.588Z,100343.77
2023-02-08T16:23:01.784Z,100350.10
2023-02-08T16:25:49.535Z,100355.35
2023-02-08T16:28:30.421Z,100354.86
2023-02-08T16:31:04.366Z,100364.20
2023-02-08T16:33:37.622Z,100371.42
2023-02-08T16:36:07.701Z,100380.01
2023-02-08T16:38:40.086Z,100380.34
2023-02-08T16:41:14.638Z,100378.81
2023-02-08T16:43:46.917Z,100379.65
2023-02-08T16:46:32.955Z,100377.70
2023-02-08T16:49:06.336Z,100371.94
2023-02-08T16:51:38.204Z,100370.21
2023-02-08T16:54:09.015Z,100367.66
2023-02-08T16:56:42.805Z,100373.99
2023-02-08T16:59:14.060Z,100375.00
2023-02-08T17:01:49.011Z,100373.16
2023-02-08T17:04:35.523Z,100375.27
2023-02-08T17:07:12.508Z,100382.63
2023-02-08T17:09:42.769Z,100377.73
2023-02-08T17:12:21.820Z,100381.62
2023-02-08T17:14:53.481Z,100380.94
2023-02-08T17:17:29.130Z,100380.98
2023-02-08T17:20:00.299Z,100381.95
2023-02-08T17:22:30.762Z,100387.29
2023-02-08T17:25:00.413Z,100388.48
2023-02-08T17:27:30.729Z,100384.30
2023-02-08T17:30:00.310Z,100383.29
2023-02-08T17:32:30.219Z,100385.83
2023-02-08T17:35:02.531Z,100387.22
2023-02-08T17:37:33.054Z,100387.77
2023-02-08T17:40:02.506Z,100392.11
2023-02-08T17:42:32.927Z,100394.86
2023-02-08T17:45:04.332Z,100398.05
2023-02-08T17:47:34.899Z,100404.52
2023-02-08T17:50:09.402Z,100406.29
2023-02-08T17:52:39.167Z,100403.71
2023-02-08T17:55:11.379Z,100407.64
2023-02-08T17:57:45.726Z,100406.95
2023-02-08T18:00:19.777Z,100408.58
2023-02-08T18:02:55.502Z,100408.95
2023-02-08T18:05:28.307Z,100413.44
2023-02-08T18:08:00.164Z,100417.10
2023-02-08T18:10:30.319Z,100420.11
2023-02-08T18:13:00.781Z,100421.52
2023-02-08T18:15:31.054Z,100421.69
2023-02-08T18:18:00.810Z,100423.89
2023-02-08T18:20:30.639Z,100422.88
2023-02-08T18:23:00.973Z,100419.07
2023-02-08T18:25:31.858Z,100417.96
2023-02-08T18:28:03.426Z,100417.16
2023-02-08T18:30:34.628Z,100412.91
2023-02-08T18:33:04.190Z,100414.63
2023-02-08T18:35:33.477Z,100414.59
2023-02-08T18:38:04.527Z,100415.93
2023-02-08T18:40:36.550Z,100417.18
2023-02-08T18:43:09.690Z,100418.98
2023-02-08T18:45:39.812Z,100422.57
2023-02-08T18:48:09.666Z,100422.27
2023-02-08T18:50:40.116Z,100425.49
2023-02-08T18:53:12.904Z,100427.52
2023-02-08T18:55:55.118Z,100423.32
2023-02-08T18:58:26.754Z,100423.71
2023-02-08T19:01:13.682Z,100423.92
2023-02-08T19:03:45.467Z,100427.07
2023-02-08T19:06:18.662Z,100422.23
2023-02-08T19:08:55.798Z,100421.05
2023-02-08T19:11:34.499Z,100422.48
2023-02-08T19:14:11.082Z,100423.25
2023-02-08T19:16:44.842Z,100429.11
2023-02-08T19:19:14.516Z,100425.62
2023-02-08T19:21:44.038Z,100430.64
2023-02-08T19:24:15.375Z,100428.98
2023-02-08T19:26:45.849Z,100431.29
2023-02-08T19:29:17.979Z,100432.02
2023-02-08T19:31:50.052Z,100434.12
2023-02-08T19:34:22.096Z,100425.59
2023-02-08T19:36:57.620Z,100425.98
2023-02-08T19:39:31.353Z,100436.62
2023-02-08T19:42:01.185Z,100434.27
2023-02-08T19:44:31.235Z,100433.83
2023-02-08T19:47:01.064Z,100431.88
2023-02-08T19:49:37.861Z,100435.20
2023-02-08T19:52:07.803Z,100436.02
2023-02-08T19:54:37.317Z,100434.33
2023-02-08T19:57:13.196Z,100438.73
2023-02-08T19:59:45.069Z,100438.78
2023-02-08T20:02:18.805Z,100440.16
2023-02-08T20:04:48.229Z,100440.75
2023-02-08T20:07:18.638Z,100439.80
2023-02-08T20:09:48.816Z,100440.29
2023-02-08T20:12:20.584Z,100441.08
2023-02-08T20:14:50.863Z,100444.19
2023-02-08T20:17:20.774Z,100444.96
2023-02-08T20:19:52.843Z,100449.73
2023-02-08T20:22:23.555Z,100447.11
2023-02-08T20:24:55.052Z,100447.84
2023-02-08T20:27:24.984Z,100448.27
2023-02-08T20:29:57.093Z,100454.11
2023-02-08T20:32:28.163Z,100449.52
2023-02-08T20:34:59.849Z,100448.29
2023-02-08T20:37:30.860Z,100449.02
2023-02-08T20:40:00.662Z,100445.21
2023-02-08T20:42:31.841Z,100445.79
2023-02-08T20:45:04.613Z,100442.45
2023-02-08T20:47:46.055Z,100441.70
2023-02-08T20:50:20.413Z,100442.02
2023-02-08T20:52:50.224Z,100437.02
2023-02-08T20:55:19.948Z,100440.30
2023-02-08T20:57:50.252Z,100437.40
2023-02-08T21:00:21.656Z,100442.59
2023-02-08T21:02:53.436Z,100440.25
2023-02-08T21:05:23.043Z,100440.50
2023-02-08T21:07:54.497Z,100440.86
2023-02-08T21:10:24.505Z,100432.08
2023-02-08T21:12:54.248Z,100437.59
2023-02-08T21:15:23.643Z,100438.64
2023-02-08T21:17:53.050Z,100441.45
2023-02-08T21:20:23.423Z,100440.64
2023-02-08T21:22:53.158Z,100439.23
2023-02-08T21:25:24.685Z,100440.83
2023-02-08T21:27:54.751Z,100440.52
2023-02-08T21:30:27.501Z,100438.09
2023-02-08T21:32:56.721Z,100439.64
2023-02-08T21:35:26.712Z,100435.68
2023-02-08T21:37:58.762Z,100436.95
2023-02-08T21:40:29.963Z,100442.52
2023-02-08T21:43:00.667Z,100445.16
2023-02-08T21:45:31.517Z,100443.08
2023-02-08T21:48:00.621Z,100443.86
2023-02-08T21:50:49.063Z,100443.48
2023-02-08T21:53:55.459Z,100438.90
2023-02-08T21:56:24.663Z,100442.80
2023-02-08T21:58:54.653Z,100439.56
2023-02-08T22:01:25.248Z,100438.87
2023-02-08T22:03:59.019Z,100437.58
2023-02-08T22:06:33.749Z,100435.40
2023-02-08T22:09:04.806Z,100437.98
2023-02-08T22:11:41.519Z,100438.94
2023-02-08T22:14:14.248Z,100434.17
2023-02-08T22:16:44.382Z,100430.40
2023-02-08T22:19:14.470Z,100429.77
2023-02-08T22:21:45.518Z,100431.23
2023-02-08T22:24:15.070Z,100435.86
2023-02-08T22:26:44.439Z,100431.98
2023-02-08T22:29:14.617Z,100433.77
2023-02-08T22:31:47.847Z,100433.20
2023-02-08T22:34:20.643Z,100430.08
2023-02-08T22:36:53.489Z,100427.80
2023-02-08T22:39:24.165Z,100423.28
2023-02-08T22:41:53.665Z,100429.05
2023-02-08T22:44:23.224Z,100429.23
2023-02-08T22:47:13.745Z,100424.04
2023-02-08T22:49:43.190Z,100424.42
2023-02-08T22:52:15.159Z,100420.52
2023-02-08T22:54:45.139Z,100418.55
2023-02-08T22:58:25.985Z,100415.92
2023-02-08T23:01:12.873Z,100421.35
2023-02-08T23:03:43.514Z,100417.55
2023-02-08T23:06:16.487Z,100413.02
2023-02-08T23:08:46.055Z,100413.86
2023-02-08T23:11:16.628Z,100413.75
2023-02-08T23:13:46.275Z,100414.51
2023-02-08T23:16:18.280Z,100413.83
2023-02-08T23:18:50.532Z,100404.44
2023-02-08T23:21:23.333Z,100409.33
2023-02-08T23:23:52.720Z,100409.13
2023-02-08T23:26:24.088Z,100402.96
2023-02-08T23:28:54.500Z,100400.32
2023-02-08T23:31:32.218Z,100400.99
2023-02-08T23:34:02.317Z,100398.00
2023-02-08T23:36:32.212Z,100396.75
2023-02-08T23:39:03.739Z,100396.23
2023-02-08T23:41:33.372Z,100397.73
2023-02-08T23:44:03.764Z,100395.02
2023-02-08T23:46:34.309Z,100395.77
2023-02-08T23:49:04.527Z,100393.80
2023-02-08T23:51:33.672Z,100394.18
2023-02-08T23:54:07.131Z,100393.36
2023-02-08T23:56:36.870Z,100392.24
2023-02-08T23:59:08.853Z,100392.36
